createdAt,value
2023-05-30T00:02:26.554Z,17.60
2023-05-30T00:05:15.366Z,17.60
2023-05-30T00:08:05.736Z,17.80
2023-05-30T00:10:54.471Z,18.00
2023-05-30T00:13:44.800Z,18.00
2023-05-30T00:16:35.700Z,18.00
2023-05-30T00:19:25.290Z,17.50
2023-05-30T00:22:14.063Z,17.40
2023-05-30T00:25:05.864Z,17.70
2023-05-30T00:27:54.632Z,18.00
2023-05-30T00:30:43.728Z,17.70
2023-05-30T00:33:34.306Z,18.20
2023-05-30T00:36:23.058Z,18.00
2023-05-30T00:39:11.727Z,17.90
2023-05-30T00:42:02.123Z,17.80
2023-05-30T00:44:50.981Z,18.10
2023-05-30T00:47:40.460Z,18.20
2023-05-30T00:50:31.637Z,18.30
2023-05-30T00:53:23.187Z,18.60
2023-05-30T00:56:13.459Z,18.70
2023-05-30T00:59:04.010Z,18.80
2023-05-30T01:01:53.354Z,18.90
2023-05-30T01:04:43.893Z,19.10
2023-05-30T01:07:34.483Z,19.20
2023-05-30T01:10:24.644Z,18.60
2023-05-30T01:13:20.296Z,17.80
2023-05-30T01:16:15.732Z,17.30
2023-05-30T01:19:23.000Z,17.40
2023-05-30T01:22:20.453Z,17.00
2023-05-30T01:25:23.345Z,17.60
2023-05-30T01:28:14.861Z,17.40
2023-05-30T01:31:05.607Z,17.00
2023-05-30T01:33:55.264Z,17.10
2023-05-30T01:36:46.092Z,17.60
2023-05-30T01:39:35.273Z,17.80
2023-05-30T01:42:27.311Z,17.30
2023-05-30T01:45:21.550Z,17.10
2023-05-30T01:48:17.191Z,17.40
2023-05-30T01:51:12.575Z,16.90
2023-05-30T01:54:04.441Z,16.50
2023-05-30T01:56:56.336Z,16.70
2023-05-30T01:59:46.003Z,16.80
2023-05-30T02:02:37.024Z,17.20
2023-05-30T02:05:26.630Z,17.70
2023-05-30T02:08:17.556Z,17.40
2023-05-30T02:11:06.783Z,17.00
2023-05-30T02:13:55.505Z,16.70
2023-05-30T02:16:47.155Z,16.70
2023-05-30T02:19:42.199Z,16.90
2023-05-30T02:22:30.963Z,16.90
2023-05-30T02:25:21.009Z,16.70
2023-05-30T02:28:17.181Z,16.70
2023-05-30T02:31:06.007Z,16.80
2023-05-30T02:33:54.734Z,16.70
2023-05-30T02:36:45.357Z,16.90
2023-05-30T02:39:34.959Z,16.90
2023-05-30T02:42:24.187Z,16.60
2023-05-30T02:45:13.362Z,16.20
2023-05-30T02:48:08.722Z,16.00
2023-05-30T02:50:58.269Z,16.20
2023-05-30T02:53:49.057Z,16.10
2023-05-30T02:56:41.065Z,16.00
2023-05-30T02:59:43.558Z,16.50
2023-05-30T03:02:35.648Z,16.10
2023-05-30T03:05:29.958Z,15.60
2023-05-30T03:08:26.134Z,15.50
2023-05-30T03:11:16.755Z,16.10
2023-05-30T03:14:05.647Z,16.50
2023-05-30T03:16:57.631Z,16.50
2023-05-30T03:19:46.622Z,16.30
2023-05-30T03:22:36.139Z,15.80
2023-05-30T03:25:26.390Z,15.50
2023-05-30T03:28:16.623Z,15.40
2023-05-30T03:31:31.436Z,15.30
2023-05-30T03:34:24.080Z,15.60
2023-05-30T03:37:12.906Z,15.50
2023-05-30T03:40:06.630Z,15.50
2023-05-30T03:42:56.272Z,15.50
2023-05-30T03:45:46.466Z,15.40
2023-05-30T03:48:36.047Z,15.00
2023-05-30T03:51:25.000Z,14.90
2023-05-30T03:54:14.179Z,14.90
2023-05-30T03:57:03.189Z,15.00
2023-05-30T03:59:51.888Z,15.00
2023-05-30T04:02:42.427Z,15.10
2023-05-30T04:05:31.314Z,14.90
2023-05-30T04:08:20.204Z,14.90
2023-05-30T04:11:10.399Z,14.90
2023-05-30T04:13:59.320Z,14.90
2023-05-30T04:16:48.155Z,14.90
2023-05-30T04:19:38.321Z,14.90
2023-05-30T04:22:27.351Z,15.20
2023-05-30T04:25:16.138Z,15.40
2023-05-30T04:28:06.894Z,15.50
2023-05-30T04:31:00.568Z,15.80
2023-05-30T04:33:56.643Z,15.70
2023-05-30T04:36:47.224Z,15.40
2023-05-30T04:39:36.564Z,15.50
2023-05-30T04:42:27.729Z,15.60
2023-05-30T04:45:20.394Z,15.50
2023-05-30T04:48:10.733Z,15.40
2023-05-30T04:51:00.452Z,15.60
2023-05-30T04:53:51.422Z,15.30
2023-05-30T04:56:41.344Z,15.20
2023-05-30T04:59:31.401Z,15.30
2023-05-30T05:02:20.066Z,15.50
2023-05-30T05:05:09.610Z,15.60
2023-05-30T05:07:58.380Z,15.80
2023-05-30T05:10:48.403Z,16.40
2023-05-30T05:13:37.756Z,16.70
2023-05-30T05:16:26.779Z,16.60
2023-05-30T05:19:15.894Z,16.80
2023-05-30T05:22:05.361Z,17.10
2023-05-30T05:24:54.092Z,17.10
2023-05-30T05:27:44.213Z,17.20
2023-05-30T05:30:32.901Z,17.20
2023-05-30T05:33:21.608Z,17.20
2023-05-30T05:36:10.933Z,17.40
2023-05-30T05:38:59.744Z,17.50
2023-05-30T05:41:49.157Z,17.70
2023-05-30T05:44:39.563Z,17.80
2023-05-30T05:47:28.344Z,17.80
2023-05-30T05:50:17.153Z,17.40
2023-05-30T05:53:05.864Z,17.40
2023-05-30T05:55:55.893Z,17.50
2023-05-30T05:58:44.571Z,17.40
2023-05-30T06:01:34.596Z,17.40
2023-05-30T06:04:23.442Z,17.50
2023-05-30T06:07:12.409Z,17.50
2023-05-30T06:10:01.260Z,17.50
2023-05-30T06:12:50.615Z,17.40
2023-05-30T06:15:39.325Z,17.30
2023-05-30T06:18:29.517Z,17.40
2023-05-30T06:21:18.173Z,17.40
2023-05-30T06:24:08.076Z,17.50
2023-05-30T06:26:57.475Z,17.70
2023-05-30T06:29:46.307Z,17.90
2023-05-30T06:32:35.211Z,18.20
2023-05-30T06:35:25.829Z,18.30
2023-05-30T06:38:16.515Z,18.50
2023-05-30T06:41:05.260Z,18.50
2023-05-30T06:43:53.930Z,18.70
2023-05-30T06:46:42.736Z,18.80
2023-05-30T06:49:32.014Z,18.90
2023-05-30T06:52:22.362Z,19.00
2023-05-30T06:55:11.191Z,19.00
2023-05-30T06:58:00.352Z,19.00
2023-05-30T07:00:49.110Z,19.10
2023-05-30T07:03:38.321Z,19.40
2023-05-30T07:06:28.316Z,19.70
2023-05-30T07:09:18.682Z,19.90
2023-05-30T07:12:09.003Z,20.20
2023-05-30T07:14:57.945Z,20.00
2023-05-30T07:17:47.316Z,19.90
2023-05-30T07:20:36.746Z,20.10
2023-05-30T07:23:25.505Z,20.10
2023-05-30T07:26:15.913Z,20.20
2023-05-30T07:29:04.854Z,20.50
2023-05-30T07:31:53.639Z,20.70
2023-05-30T07:34:45.168Z,20.70
2023-05-30T07:37:33.925Z,20.90
2023-05-30T07:40:22.766Z,21.00
2023-05-30T07:43:12.857Z,21.00
2023-05-30T07:46:01.840Z,21.20
2023-05-30T07:48:50.532Z,21.30
2023-05-30T07:51:39.258Z,21.50
2023-05-30T07:54:27.887Z,21.50
2023-05-30T07:57:16.624Z,21.40
2023-05-30T08:00:09.745Z,21.40
2023-05-30T08:03:01.588Z,21.20
2023-05-30T08:05:52.464Z,21.10
2023-05-30T08:08:41.283Z,21.00
2023-05-30T08:11:30.030Z,20.80
2023-05-30T08:14:18.835Z,21.00
2023-05-30T08:17:09.027Z,21.00
2023-05-30T08:19:58.525Z,21.10
2023-05-30T08:22:47.363Z,21.10
2023-05-30T08:25:43.732Z,21.30
2023-05-30T08:28:33.106Z,21.50
2023-05-30T08:31:22.742Z,21.80
2023-05-30T08:34:12.913Z,21.60
2023-05-30T08:37:01.672Z,21.80
2023-05-30T08:39:50.300Z,21.90
2023-05-30T08:42:40.139Z,22.10
2023-05-30T08:45:29.853Z,22.20
2023-05-30T08:48:21.215Z,22.20
2023-05-30T08:51:14.694Z,22.30
2023-05-30T08:54:06.066Z,22.30
2023-05-30T08:57:01.003Z,22.40
2023-05-30T08:59:51.595Z,22.40
2023-05-30T09:02:40.897Z,22.70
2023-05-30T09:05:30.699Z,22.80
2023-05-30T09:08:23.864Z,23.00
2023-05-30T09:11:12.750Z,23.10
2023-05-30T09:14:02.314Z,23.20
2023-05-30T09:16:51.393Z,23.00
2023-05-30T09:19:40.895Z,23.20
2023-05-30T09:22:30.447Z,23.40
2023-05-30T09:25:20.524Z,23.40
2023-05-30T09:28:09.174Z,23.50
2023-05-30T09:31:02.634Z,23.50
2023-05-30T09:33:53.729Z,23.50
2023-05-30T09:36:42.438Z,23.70
2023-05-30T09:39:34.215Z,23.80
2023-05-30T09:42:24.303Z,24.00
2023-05-30T09:45:14.779Z,24.00
2023-05-30T09:48:05.680Z,24.10
2023-05-30T09:50:55.013Z,24.10
2023-05-30T09:53:56.741Z,24.20
2023-05-30T09:56:45.735Z,24.30
2023-05-30T09:59:35.791Z,24.50
2023-05-30T10:02:25.552Z,24.60
2023-05-30T10:05:21.679Z,24.90
2023-05-30T10:08:12.611Z,24.90
2023-05-30T10:11:01.882Z,24.70
2023-05-30T10:13:50.648Z,24.90
2023-05-30T10:16:47.444Z,25.00
2023-05-30T10:19:42.896Z,25.20
2023-05-30T10:22:36.959Z,25.30
2023-05-30T10:25:30.212Z,25.50
2023-05-30T10:28:25.407Z,25.50
2023-05-30T10:31:15.305Z,25.60
2023-05-30T10:34:07.933Z,25.50
2023-05-30T10:36:56.992Z,25.50
2023-05-30T10:39:59.318Z,25.60
2023-05-30T10:42:59.634Z,25.60
2023-05-30T10:45:58.166Z,25.90
2023-05-30T10:48:52.606Z,26.00
2023-05-30T10:52:04.707Z,25.90
2023-05-30T10:54:54.100Z,26.20
2023-05-30T10:57:44.178Z,26.20
2023-05-30T11:00:34.895Z,26.20
2023-05-30T11:03:38.471Z,26.00
2023-05-30T11:06:29.333Z,26.20
2023-05-30T11:09:20.084Z,26.30
2023-05-30T11:12:09.471Z,26.40
2023-05-30T11:14:59.117Z,26.50
2023-05-30T11:17:48.264Z,26.10
2023-05-30T11:20:51.082Z,26.10
2023-05-30T11:24:01.972Z,26.20
2023-05-30T11:27:09.045Z,26.50
2023-05-30T11:29:58.930Z,26.60
2023-05-30T11:32:48.892Z,26.30
2023-05-30T11:35:38.008Z,26.40
2023-05-30T11:38:27.196Z,26.50
2023-05-30T11:41:17.546Z,26.70
2023-05-30T11:44:07.743Z,26.60
2023-05-30T11:47:04.558Z,26.70
2023-05-30T11:49:56.341Z,26.90
2023-05-30T11:52:45.367Z,27.00
2023-05-30T11:55:34.097Z,26.70
2023-05-30T11:58:23.495Z,26.90
2023-05-30T12:01:14.981Z,26.70
2023-05-30T12:04:05.991Z,26.60
2023-05-30T12:06:58.668Z,26.90
2023-05-30T12:09:49.937Z,27.20
2023-05-30T12:12:40.371Z,27.20
2023-05-30T12:15:29.310Z,27.20
2023-05-30T12:18:20.141Z,27.20
2023-05-30T12:21:09.558Z,27.20
2023-05-30T12:23:58.538Z,27.30
2023-05-30T12:26:49.679Z,27.40
2023-05-30T12:29:38.621Z,27.60
2023-05-30T12:32:31.274Z,27.60
2023-05-30T12:35:27.773Z,27.60
2023-05-30T12:38:17.432Z,27.50
2023-05-30T12:41:08.246Z,27.70
2023-05-30T12:43:57.890Z,27.90
2023-05-30T12:46:46.685Z,27.70
2023-05-30T12:49:35.551Z,27.50
2023-05-30T12:52:27.129Z,27.40
2023-05-30T12:55:15.915Z,27.70
2023-05-30T12:58:07.262Z,27.60
2023-05-30T13:00:56.088Z,27.70
2023-05-30T13:03:45.208Z,27.80
2023-05-30T13:06:34.188Z,27.90
2023-05-30T13:09:24.428Z,28.10
2023-05-30T13:12:14.232Z,28.20
2023-05-30T13:15:03.898Z,28.00
2023-05-30T13:17:52.779Z,28.10
2023-05-30T13:20:43.869Z,28.00
2023-05-30T13:23:32.721Z,27.80
2023-05-30T13:26:23.695Z,27.80
2023-05-30T13:29:13.334Z,27.90
2023-05-30T13:32:03.467Z,28.00
2023-05-30T13:34:52.841Z,27.90
2023-05-30T13:37:44.178Z,27.50
2023-05-30T13:40:33.225Z,27.40
2023-05-30T13:43:24.190Z,27.30
2023-05-30T13:46:14.812Z,27.30
2023-05-30T13:49:05.850Z,27.50
2023-05-30T13:51:54.927Z,27.60
2023-05-30T13:54:43.638Z,27.70
2023-05-30T13:57:32.356Z,27.80
2023-05-30T14:00:22.764Z,28.00
2023-05-30T14:03:11.642Z,27.60
2023-05-30T14:06:02.030Z,27.10
2023-05-30T14:08:50.720Z,26.90
2023-05-30T14:11:39.383Z,27.10
2023-05-30T14:14:29.762Z,27.30
2023-05-30T14:17:20.931Z,27.40
2023-05-30T14:20:11.464Z,27.50
2023-05-30T14:23:02.182Z,27.30
2023-05-30T14:25:51.085Z,27.20
2023-05-30T14:28:41.736Z,27.50
2023-05-30T14:31:30.660Z,27.60
2023-05-30T14:34:20.723Z,27.50
2023-05-30T14:37:09.494Z,27.60
2023-05-30T14:39:59.375Z,27.50
2023-05-30T14:42:49.066Z,27.40
2023-05-30T14:45:38.040Z,27.40
2023-05-30T14:48:26.938Z,27.30
2023-05-30T14:51:17.270Z,27.40
2023-05-30T14:54:06.298Z,27.30
2023-05-30T14:56:55.249Z,27.40
2023-05-30T14:59:44.741Z,27.40
2023-05-30T15:02:33.860Z,27.40
2023-05-30T15:05:23.326Z,27.50
2023-05-30T15:08:15.214Z,27.30
2023-05-30T15:11:04.351Z,27.20
2023-05-30T15:13:53.537Z,27.50
2023-05-30T15:16:42.759Z,27.60
2023-05-30T15:19:32.252Z,27.60
2023-05-30T15:22:20.984Z,27.60
2023-05-30T15:25:11.558Z,27.50
2023-05-30T15:28:02.093Z,27.30
2023-05-30T15:30:50.991Z,27.00
2023-05-30T15:33:39.697Z,26.70
2023-05-30T15:36:28.433Z,26.60
2023-05-30T15:39:17.529Z,26.50
2023-05-30T15:42:08.694Z,26.60
2023-05-30T15:44:57.480Z,26.50
2023-05-30T15:47:46.382Z,26.60
2023-05-30T15:50:35.157Z,26.60
2023-05-30T15:53:25.456Z,26.70
2023-05-30T15:56:14.613Z,26.80
2023-05-30T15:59:04.849Z,26.70
2023-05-30T16:01:53.989Z,26.60
2023-05-30T16:04:42.893Z,26.70
2023-05-30T16:07:31.652Z,26.60
2023-05-30T16:10:21.098Z,26.30
2023-05-30T16:13:10.798Z,26.10
2023-05-30T16:16:01.453Z,26.10
2023-05-30T16:18:50.162Z,25.90
2023-05-30T16:21:39.164Z,25.90
2023-05-30T16:24:28.404Z,26.00
2023-05-30T16:27:18.413Z,26.00
2023-05-30T16:30:08.376Z,25.90
2023-05-30T16:32:58.657Z,25.90
2023-05-30T16:36:02.879Z,26.10
2023-05-30T16:38:51.699Z,26.00
2023-05-30T16:41:40.532Z,25.80
2023-05-30T16:44:30.881Z,25.80
2023-05-30T16:47:19.563Z,25.90
2023-05-30T16:50:10.736Z,26.00
2023-05-30T16:53:00.255Z,25.90
2023-05-30T16:55:49.220Z,25.90
2023-05-30T16:58:38.028Z,25.80
2023-05-30T17:01:27.213Z,25.70
2023-05-30T17:04:15.959Z,25.70
2023-05-30T17:07:06.524Z,25.70
2023-05-30T17:09:55.216Z,25.60
2023-05-30T17:12:44.017Z,25.70
2023-05-30T17:15:32.833Z,25.50
2023-05-30T17:18:21.660Z,25.50
2023-05-30T17:21:10.970Z,25.50
2023-05-30T17:24:05.546Z,25.50
2023-05-30T17:26:54.333Z,25.50
2023-05-30T17:29:43.223Z,25.30
2023-05-30T17:32:32.128Z,25.20
2023-05-30T17:35:20.904Z,25.10
2023-05-30T17:38:09.588Z,25.20
2023-05-30T17:41:01.457Z,25.10
2023-05-30T17:43:50.416Z,25.10
2023-05-30T17:46:39.367Z,25.10
2023-05-30T17:49:28.287Z,25.20
2023-05-30T17:52:17.857Z,25.10
2023-05-30T17:55:07.716Z,25.00
2023-05-30T17:57:57.936Z,25.00
2023-05-30T18:00:48.362Z,24.90
2023-05-30T18:03:37.051Z,24.90
2023-05-30T18:06:27.909Z,24.60
2023-05-30T18:09:16.989Z,24.70
2023-05-30T18:12:08.276Z,24.70
2023-05-30T18:14:59.054Z,24.60
2023-05-30T18:17:48.183Z,24.60
2023-05-30T18:20:37.917Z,24.60
2023-05-30T18:23:28.451Z,24.50
2023-05-30T18:26:17.334Z,24.50
2023-05-30T18:29:06.096Z,24.40
2023-05-30T18:31:56.279Z,24.20
2023-05-30T18:34:45.024Z,24.20
2023-05-30T18:37:33.818Z,24.40
2023-05-30T18:40:22.551Z,24.20
2023-05-30T18:43:12.624Z,24.20
2023-05-30T18:46:01.699Z,24.20
2023-05-30T18:48:54.586Z,24.20
2023-05-30T18:51:43.393Z,24.10
2023-05-30T18:54:32.178Z,24.10
2023-05-30T18:57:20.862Z,24.10
2023-05-30T19:00:11.305Z,23.90
2023-05-30T19:03:00.581Z,24.10
2023-05-30T19:05:50.910Z,24.00
2023-05-30T19:08:39.605Z,24.00
2023-05-30T19:11:28.330Z,23.90
2023-05-30T19:14:20.028Z,24.10
2023-05-30T19:17:08.832Z,23.50
2023-05-30T19:19:59.185Z,22.90
2023-05-30T19:22:49.693Z,23.10
2023-05-30T19:25:38.502Z,22.90
2023-05-30T19:28:31.000Z,22.70
2023-05-30T19:31:21.203Z,22.70
2023-05-30T19:34:10.106Z,22.40
2023-05-30T19:37:02.016Z,22.30
2023-05-30T19:39:52.531Z,22.00
2023-05-30T19:42:41.203Z,21.80
2023-05-30T19:45:30.036Z,21.70
2023-05-30T19:48:18.811Z,21.50
2023-05-30T19:51:07.668Z,21.20
2023-05-30T19:53:56.366Z,20.90
2023-05-30T19:56:46.680Z,20.80
2023-05-30T19:59:35.831Z,20.60
2023-05-30T20:02:06.377Z,20.40
2023-05-30T20:04:35.042Z,20.30
2023-05-30T20:07:03.941Z,20.00
2023-05-30T20:09:32.511Z,20.30
2023-05-30T20:12:02.571Z,20.20
2023-05-30T20:14:33.215Z,20.30
2023-05-30T20:17:02.863Z,20.20
2023-05-30T20:19:31.375Z,19.90
2023-05-30T20:22:00.436Z,19.70
2023-05-30T20:24:29.274Z,19.80
2023-05-30T20:26:58.200Z,19.40
2023-05-30T20:29:28.280Z,19.30
2023-05-30T20:32:00.857Z,19.10
2023-05-30T20:34:29.274Z,18.90
2023-05-30T20:37:00.108Z,18.90
2023-05-30T20:39:28.573Z,18.90
2023-05-30T20:41:57.139Z,18.90
2023-05-30T20:44:27.107Z,18.80
2023-05-30T20:46:56.278Z,18.80
2023-05-30T20:49:25.643Z,18.80
2023-05-30T20:51:54.923Z,19.10
2023-05-30T20:54:23.379Z,19.30
2023-05-30T20:56:51.813Z,19.60
2023-05-30T20:59:20.264Z,19.40
2023-05-30T21:01:51.725Z,19.30
2023-05-30T21:04:20.352Z,19.50
2023-05-30T21:06:48.935Z,19.70
2023-05-30T21:09:18.860Z,19.80
2023-05-30T21:11:47.250Z,19.90
2023-05-30T21:14:15.911Z,19.90
2023-05-30T21:16:44.463Z,19.90
2023-05-30T21:19:15.086Z,20.00
2023-05-30T21:21:43.879Z,19.90
2023-05-30T21:24:12.264Z,20.00
2023-05-30T21:26:40.785Z,20.00
2023-05-30T21:29:09.264Z,19.80
2023-05-30T21:31:38.093Z,19.80
2023-05-30T21:34:06.618Z,19.70
2023-05-30T21:36:38.322Z,19.60
2023-05-30T21:39:08.302Z,19.70
2023-05-30T21:41:36.997Z,19.90
2023-05-30T21:44:06.386Z,19.90
2023-05-30T21:46:37.489Z,20.00
2023-05-30T21:49:06.888Z,19.90
2023-05-30T21:51:37.856Z,19.70
2023-05-30T21:54:07.595Z,19.70
2023-05-30T21:56:36.413Z,19.80
2023-05-30T21:59:06.015Z,19.90
2023-05-30T22:01:34.421Z,19.80
2023-05-30T22:04:03.935Z,19.80
2023-05-30T22:06:33.148Z,19.70
2023-05-30T22:09:03.165Z,19.70
2023-05-30T22:11:31.706Z,19.80
2023-05-30T22:14:00.358Z,19.80
2023-05-30T22:16:29.076Z,19.80
2023-05-30T22:18:57.565Z,19.80
2023-05-30T22:21:26.078Z,19.60
2023-05-30T22:23:54.569Z,19.50
2023-05-30T22:26:25.282Z,19.60
2023-05-30T22:28:54.747Z,19.40
2023-05-30T22:31:23.584Z,19.20
2023-05-30T22:33:51.997Z,19.10
2023-05-30T22:36:20.784Z,19.00
2023-05-30T22:38:49.575Z,18.80
2023-05-30T22:41:18.067Z,18.40
2023-05-30T22:43:49.623Z,18.40
2023-05-30T22:46:18.242Z,18.20
2023-05-30T22:48:47.509Z,18.10
2023-05-30T22:51:15.944Z,17.80
2023-05-30T22:53:44.387Z,17.60
2023-05-30T22:56:12.985Z,17.40
2023-05-30T22:58:41.479Z,17.50
2023-05-30T23:01:11.388Z,17.80
2023-05-30T23:03:40.124Z,18.30
2023-05-30T23:06:09.970Z,18.60
2023-05-30T23:08:38.635Z,18.70
2023-05-30T23:11:07.187Z,18.90
2023-05-30T23:13:35.741Z,18.90
2023-05-30T23:16:04.272Z,18.90
2023-05-30T23:18:34.323Z,18.80
2023-05-30T23:21:03.137Z,18.60
2023-05-30T23:23:31.700Z,18.60
2023-05-30T23:26:00.227Z,18.50
2023-05-30T23:28:28.703Z,18.50
2023-05-30T23:30:57.477Z,18.50
2023-05-30T23:33:25.904Z,18.50
2023-05-30T23:35:55.698Z,18.20
2023-05-30T23:38:24.200Z,18.30
2023-05-30T23:40:56.218Z,18.30
2023-05-30T23:43:24.871Z,18.20
2023-05-30T23:45:53.564Z,18.10
2023-05-30T23:48:22.602Z,18.10
2023-05-30T23:50:51.173Z,18.00
2023-05-30T23:53:21.116Z,18.00
2023-05-30T23:55:49.739Z,18.10
2023-05-30T23:58:18.155Z,18.10
